sensor_id;sensor_type;location;lat;lon;timestamp;P1;durP1;ratioP1;P2;durP2;ratioP2
13795;SDS011;40911;51.552;9.874;2023-04-06T00:06:05;9.35;;;7.72;;
13795;SDS011;40911;51.552;9.874;2023-04-06T00:08:27;9.07;;;6.88;;
13795;SDS011;40911;51.552;9.874;2023-04-06T00:10:49;8.55;;;7.25;;
13795;SDS011;40911;51.552;9.874;2023-04-06T00:13:10;8.15;;;7.35;;
13795;SDS011;40911;51.552;9.874;2023-04-06T00:15:32;8.77;;;7.72;;
13795;SDS011;40911;51.552;9.874;2023-04-06T00:17:55;8.10;;;7.30;;
13795;SDS011;40911;51.552;9.874;2023-04-06T00:20:16;8.75;;;7.47;;
13795;SDS011;40911;51.552;9.874;2023-04-06T00:22:40;8.75;;;7.80;;
13795;SDS011;40911;51.552;9.874;2023-04-06T00:25:01;8.77;;;7.60;;
13795;SDS011;40911;51.552;9.874;2023-04-06T00:27:23;8.98;;;7.78;;
13795;SDS011;40911;51.552;9.874;2023-04-06T00:29:45;10.52;;;8.05;;
13795;SDS011;40911;51.552;9.874;2023-04-06T00:32:06;9.10;;;7.75;;
13795;SDS011;40911;51.552;9.874;2023-04-06T00:34:28;8.57;;;7.78;;
13795;SDS011;40911;51.552;9.874;2023-04-06T00:36:50;9.77;;;7.68;;
13795;SDS011;40911;51.552;9.874;2023-04-06T00:39:13;8.32;;;7.53;;
13795;SDS011;40911;51.552;9.874;2023-04-06T00:41:34;10.95;;;7.95;;
13795;SDS011;40911;51.552;9.874;2023-04-06T00:43:56;7.63;;;6.88;;
13795;SDS011;40911;51.552;9.874;2023-04-06T00:46:17;12.15;;;8.23;;
13795;SDS011;40911;51.552;9.874;2023-04-06T00:48:39;9.65;;;8.07;;
13795;SDS011;40911;51.552;9.874;2023-04-06T00:51:01;8.60;;;7.60;;
13795;SDS011;40911;51.552;9.874;2023-04-06T00:53:23;12.18;;;7.50;;
13795;SDS011;40911;51.552;9.874;2023-04-06T00:55:46;9.93;;;7.78;;
13795;SDS011;40911;51.552;9.874;2023-04-06T00:58:08;9.18;;;7.70;;
13795;SDS011;40911;51.552;9.874;2023-04-06T01:00:29;8.85;;;8.05;;
13795;SDS011;40911;51.552;9.874;2023-04-06T01:02:51;8.93;;;8.02;;
13795;SDS011;40911;51.552;9.874;2023-04-06T01:05:14;10.80;;;8.18;;
13795;SDS011;40911;51.552;9.874;2023-04-06T01:07:35;9.60;;;7.97;;
13795;SDS011;40911;51.552;9.874;2023-04-06T01:09:57;13.15;;;8.77;;
13795;SDS011;40911;51.552;9.874;2023-04-06T01:12:20;10.75;;;8.52;;
13795;SDS011;40911;51.552;9.874;2023-04-06T01:14:42;10.02;;;8.38;;
13795;SDS011;40911;51.552;9.874;2023-04-06T01:17:03;10.25;;;8.25;;
13795;SDS011;40911;51.552;9.874;2023-04-06T01:19:25;12.35;;;8.43;;
13795;SDS011;40911;51.552;9.874;2023-04-06T01:24:10;13.32;;;8.82;;
13795;SDS011;40911;51.552;9.874;2023-04-06T01:26:32;11.20;;;8.45;;
13795;SDS011;40911;51.552;9.874;2023-04-06T01:28:54;9.20;;;8.30;;
13795;SDS011;40911;51.552;9.874;2023-04-06T01:31:16;13.60;;;9.10;;
13795;SDS011;40911;51.552;9.874;2023-04-06T01:33:37;11.65;;;8.60;;
13795;SDS011;40911;51.552;9.874;2023-04-06T01:35:59;11.63;;;8.85;;
13795;SDS011;40911;51.552;9.874;2023-04-06T01:38:21;10.90;;;8.50;;
13795;SDS011;40911;51.552;9.874;2023-04-06T01:40:43;11.20;;;8.80;;
13795;SDS011;40911;51.552;9.874;2023-04-06T01:43:05;12.02;;;9.07;;
13795;SDS011;40911;51.552;9.874;2023-04-06T01:45:27;12.50;;;8.88;;
13795;SDS011;40911;51.552;9.874;2023-04-06T01:47:48;12.00;;;8.75;;
13795;SDS011;40911;51.552;9.874;2023-04-06T01:50:10;10.55;;;8.80;;
13795;SDS011;40911;51.552;9.874;2023-04-06T01:52:32;9.95;;;8.60;;
13795;SDS011;40911;51.552;9.874;2023-04-06T01:54:54;10.38;;;8.52;;
13795;SDS011;40911;51.552;9.874;2023-04-06T01:57:17;10.13;;;8.73;;
13795;SDS011;40911;51.552;9.874;2023-04-06T01:59:38;11.70;;;8.73;;
13795;SDS011;40911;51.552;9.874;2023-04-06T02:02:00;13.45;;;9.43;;
13795;SDS011;40911;51.552;9.874;2023-04-06T02:04:21;9.82;;;8.80;;
13795;SDS011;40911;51.552;9.874;2023-04-06T02:06:43;10.80;;;9.68;;
13795;SDS011;40911;51.552;9.874;2023-04-06T02:09:04;12.90;;;9.18;;
13795;SDS011;40911;51.552;9.874;2023-04-06T02:11:26;11.90;;;9.18;;
13795;SDS011;40911;51.552;9.874;2023-04-06T02:13:49;10.43;;;8.80;;
13795;SDS011;40911;51.552;9.874;2023-04-06T02:16:10;10.57;;;9.20;;
13795;SDS011;40911;51.552;9.874;2023-04-06T02:18:32;10.85;;;8.77;;
13795;SDS011;40911;51.552;9.874;2023-04-06T02:20:54;12.82;;;9.20;;
13795;SDS011;40911;51.552;9.874;2023-04-06T02:25:37;9.85;;;8.85;;
13795;SDS011;40911;51.552;9.874;2023-04-06T02:27:58;10.25;;;8.55;;
13795;SDS011;40911;51.552;9.874;2023-04-06T02:30:21;13.43;;;9.15;;
13795;SDS011;40911;51.552;9.874;2023-04-06T02:32:43;9.82;;;8.82;;
13795;SDS011;40911;51.552;9.874;2023-04-06T02:35:04;12.05;;;8.88;;
13795;SDS011;40911;51.552;9.874;2023-04-06T02:37:26;15.85;;;10.02;;
13795;SDS011;40911;51.552;9.874;2023-04-06T02:39:48;11.98;;;9.65;;
13795;SDS011;40911;51.552;9.874;2023-04-06T02:42:10;11.48;;;9.85;;
13795;SDS011;40911;51.552;9.874;2023-04-06T02:44:31;10.45;;;9.35;;
13795;SDS011;40911;51.552;9.874;2023-04-06T02:46:54;12.48;;;9.82;;
13795;SDS011;40911;51.552;9.874;2023-04-06T02:49:16;10.50;;;9.30;;
13795;SDS011;40911;51.552;9.874;2023-04-06T02:51:37;10.55;;;9.02;;
13795;SDS011;40911;51.552;9.874;2023-04-06T02:53:59;12.15;;;9.55;;
13795;SDS011;40911;51.552;9.874;2023-04-06T02:56:20;14.02;;;9.75;;
13795;SDS011;40911;51.552;9.874;2023-04-06T03:01:03;11.98;;;10.25;;
13795;SDS011;40911;51.552;9.874;2023-04-06T03:03:26;11.00;;;9.80;;
13795;SDS011;40911;51.552;9.874;2023-04-06T03:05:48;10.57;;;9.45;;
13795;SDS011;40911;51.552;9.874;2023-04-06T03:08:10;14.02;;;10.23;;
13795;SDS011;40911;51.552;9.874;2023-04-06T03:10:31;12.98;;;9.18;;
13795;SDS011;40911;51.552;9.874;2023-04-06T03:12:53;13.80;;;9.93;;
13795;SDS011;40911;51.552;9.874;2023-04-06T03:15:14;13.07;;;10.07;;
13795;SDS011;40911;51.552;9.874;2023-04-06T03:17:36;11.45;;;10.07;;
13795;SDS011;40911;51.552;9.874;2023-04-06T03:19:59;13.07;;;10.32;;
13795;SDS011;40911;51.552;9.874;2023-04-06T03:22:20;12.75;;;10.00;;
13795;SDS011;40911;51.552;9.874;2023-04-06T03:24:42;11.50;;;10.07;;
13795;SDS011;40911;51.552;9.874;2023-04-06T03:27:03;11.35;;;10.15;;
13795;SDS011;40911;51.552;9.874;2023-04-06T03:29:26;11.75;;;9.77;;
13795;SDS011;40911;51.552;9.874;2023-04-06T03:31:47;11.90;;;9.45;;
13795;SDS011;40911;51.552;9.874;2023-04-06T03:36:33;12.52;;;9.10;;
13795;SDS011;40911;51.552;9.874;2023-04-06T03:38:55;13.00;;;9.75;;
13795;SDS011;40911;51.552;9.874;2023-04-06T03:41:16;12.27;;;10.13;;
13795;SDS011;40911;51.552;9.874;2023-04-06T03:43:38;13.18;;;10.32;;
13795;SDS011;40911;51.552;9.874;2023-04-06T03:45:59;15.85;;;9.75;;
13795;SDS011;40911;51.552;9.874;2023-04-06T03:48:21;11.38;;;9.60;;
13795;SDS011;40911;51.552;9.874;2023-04-06T03:50:43;11.05;;;9.95;;
13795;SDS011;40911;51.552;9.874;2023-04-06T03:53:05;11.50;;;10.30;;
13795;SDS011;40911;51.552;9.874;2023-04-06T03:55:28;11.68;;;9.55;;
13795;SDS011;40911;51.552;9.874;2023-04-06T03:57:50;15.15;;;10.45;;
13795;SDS011;40911;51.552;9.874;2023-04-06T04:00:12;13.13;;;9.93;;
13795;SDS011;40911;51.552;9.874;2023-04-06T04:02:34;14.82;;;10.00;;
13795;SDS011;40911;51.552;9.874;2023-04-06T04:04:56;12.50;;;10.00;;
13795;SDS011;40911;51.552;9.874;2023-04-06T04:07:17;12.40;;;10.27;;
13795;SDS011;40911;51.552;9.874;2023-04-06T04:09:40;11.40;;;9.73;;
13795;SDS011;40911;51.552;9.874;2023-04-06T04:12:02;14.77;;;10.10;;
13795;SDS011;40911;51.552;9.874;2023-04-06T04:14:24;12.15;;;10.10;;
13795;SDS011;40911;51.552;9.874;2023-04-06T04:16:45;12.73;;;10.60;;
13795;SDS011;40911;51.552;9.874;2023-04-06T04:19:07;13.70;;;10.63;;
13795;SDS011;40911;51.552;9.874;2023-04-06T04:21:29;15.75;;;10.82;;
13795;SDS011;40911;51.552;9.874;2023-04-06T04:23:51;12.95;;;9.60;;
13795;SDS011;40911;51.552;9.874;2023-04-06T04:28:36;10.45;;;9.35;;
13795;SDS011;40911;51.552;9.874;2023-04-06T04:30:57;12.75;;;10.05;;
13795;SDS011;40911;51.552;9.874;2023-04-06T04:33:19;13.98;;;10.27;;
13795;SDS011;40911;51.552;9.874;2023-04-06T04:35:40;11.93;;;10.13;;
13795;SDS011;40911;51.552;9.874;2023-04-06T04:38:02;12.63;;;10.07;;
13795;SDS011;40911;51.552;9.874;2023-04-06T04:40:24;12.40;;;9.82;;
13795;SDS011;40911;51.552;9.874;2023-04-06T04:42:47;13.73;;;11.10;;
13795;SDS011;40911;51.552;9.874;2023-04-06T04:45:10;12.68;;;10.45;;
13795;SDS011;40911;51.552;9.874;2023-04-06T04:47:32;12.68;;;10.05;;
13795;SDS011;40911;51.552;9.874;2023-04-06T04:49:54;13.68;;;9.93;;
13795;SDS011;40911;51.552;9.874;2023-04-06T04:52:15;12.20;;;10.05;;
13795;SDS011;40911;51.552;9.874;2023-04-06T04:54:37;15.45;;;10.40;;
13795;SDS011;40911;51.552;9.874;2023-04-06T04:57:01;11.60;;;10.23;;
13795;SDS011;40911;51.552;9.874;2023-04-06T04:59:23;15.48;;;10.57;;
13795;SDS011;40911;51.552;9.874;2023-04-06T05:01:45;15.65;;;10.63;;
13795;SDS011;40911;51.552;9.874;2023-04-06T05:04:07;15.27;;;10.35;;
13795;SDS011;40911;51.552;9.874;2023-04-06T05:06:28;10.77;;;9.63;;
13795;SDS011;40911;51.552;9.874;2023-04-06T05:08:50;12.27;;;9.95;;
13795;SDS011;40911;51.552;9.874;2023-04-06T05:11:11;10.90;;;9.77;;
13795;SDS011;40911;51.552;9.874;2023-04-06T05:13:33;17.80;;;10.52;;
13795;SDS011;40911;51.552;9.874;2023-04-06T05:15:56;17.08;;;9.85;;
13795;SDS011;40911;51.552;9.874;2023-04-06T05:18:17;11.43;;;10.25;;
13795;SDS011;40911;51.552;9.874;2023-04-06T05:20:39;14.20;;;10.77;;
13795;SDS011;40911;51.552;9.874;2023-04-06T05:23:01;12.63;;;10.70;;
13795;SDS011;40911;51.552;9.874;2023-04-06T05:27:44;15.43;;;10.80;;
13795;SDS011;40911;51.552;9.874;2023-04-06T05:30:06;14.77;;;11.07;;
13795;SDS011;40911;51.552;9.874;2023-04-06T05:32:30;13.27;;;10.93;;
13795;SDS011;40911;51.552;9.874;2023-04-06T05:34:51;14.30;;;11.13;;
13795;SDS011;40911;51.552;9.874;2023-04-06T05:37:13;17.92;;;11.90;;
13795;SDS011;40911;51.552;9.874;2023-04-06T05:39:35;18.30;;;11.35;;
13795;SDS011;40911;51.552;9.874;2023-04-06T05:41:56;22.83;;;11.20;;
13795;SDS011;40911;51.552;9.874;2023-04-06T05:44:18;14.70;;;10.82;;
13795;SDS011;40911;51.552;9.874;2023-04-06T05:46:39;14.82;;;11.10;;
13795;SDS011;40911;51.552;9.874;2023-04-06T05:49:02;18.60;;;11.30;;
13795;SDS011;40911;51.552;9.874;2023-04-06T05:51:24;14.57;;;11.30;;
13795;SDS011;40911;51.552;9.874;2023-04-06T05:53:46;15.07;;;11.10;;
13795;SDS011;40911;51.552;9.874;2023-04-06T05:56:08;18.05;;;12.02;;
13795;SDS011;40911;51.552;9.874;2023-04-06T05:58:29;17.20;;;12.35;;
13795;SDS011;40911;51.552;9.874;2023-04-06T06:00:55;13.43;;;11.32;;
13795;SDS011;40911;51.552;9.874;2023-04-06T06:03:18;14.25;;;11.57;;
13795;SDS011;40911;51.552;9.874;2023-04-06T06:05:41;15.57;;;12.13;;
13795;SDS011;40911;51.552;9.874;2023-04-06T06:08:03;13.93;;;11.75;;
13795;SDS011;40911;51.552;9.874;2023-04-06T06:10:25;16.45;;;11.23;;
13795;SDS011;40911;51.552;9.874;2023-04-06T06:12:46;19.10;;;11.15;;
13795;SDS011;40911;51.552;9.874;2023-04-06T06:15:08;16.88;;;11.38;;
13795;SDS011;40911;51.552;9.874;2023-04-06T06:17:30;14.90;;;11.30;;
13795;SDS011;40911;51.552;9.874;2023-04-06T06:19:52;16.30;;;11.70;;
13795;SDS011;40911;51.552;9.874;2023-04-06T06:22:15;17.30;;;11.65;;
13795;SDS011;40911;51.552;9.874;2023-04-06T06:24:36;20.70;;;11.90;;
13795;SDS011;40911;51.552;9.874;2023-04-06T06:26:58;19.40;;;11.27;;
13795;SDS011;40911;51.552;9.874;2023-04-06T06:31:41;18.38;;;12.55;;
13795;SDS011;40911;51.552;9.874;2023-04-06T06:34:03;14.00;;;10.68;;
13795;SDS011;40911;51.552;9.874;2023-04-06T06:36:24;10.98;;;9.70;;
13795;SDS011;40911;51.552;9.874;2023-04-06T06:38:48;13.15;;;9.40;;
13795;SDS011;40911;51.552;9.874;2023-04-06T06:41:10;13.07;;;10.27;;
13795;SDS011;40911;51.552;9.874;2023-04-06T06:45:53;13.55;;;9.30;;
13795;SDS011;40911;51.552;9.874;2023-04-06T06:48:15;11.52;;;9.45;;
13795;SDS011;40911;51.552;9.874;2023-04-06T06:50:36;10.50;;;9.02;;
13795;SDS011;40911;51.552;9.874;2023-04-06T06:52:58;12.48;;;9.40;;
13795;SDS011;40911;51.552;9.874;2023-04-06T06:55:21;12.85;;;9.40;;
13795;SDS011;40911;51.552;9.874;2023-04-06T06:57:42;10.63;;;9.32;;
13795;SDS011;40911;51.552;9.874;2023-04-06T07:00:06;12.13;;;9.15;;
13795;SDS011;40911;51.552;9.874;2023-04-06T07:02:29;11.05;;;9.80;;
13795;SDS011;40911;51.552;9.874;2023-04-06T07:04:50;10.85;;;9.10;;
13795;SDS011;40911;51.552;9.874;2023-04-06T07:07:12;10.50;;;9.43;;
13795;SDS011;40911;51.552;9.874;2023-04-06T07:11:57;12.38;;;9.23;;
13795;SDS011;40911;51.552;9.874;2023-04-06T07:14:19;10.40;;;8.85;;
13795;SDS011;40911;51.552;9.874;2023-04-06T07:16:40;11.15;;;8.30;;
13795;SDS011;40911;51.552;9.874;2023-04-06T07:19:02;9.90;;;8.65;;
13795;SDS011;40911;51.552;9.874;2023-04-06T07:21:23;10.95;;;8.93;;
13795;SDS011;40911;51.552;9.874;2023-04-06T07:23:46;10.93;;;8.43;;
13795;SDS011;40911;51.552;9.874;2023-04-06T07:26:08;9.07;;;8.18;;
13795;SDS011;40911;51.552;9.874;2023-04-06T07:30:53;11.65;;;8.10;;
13795;SDS011;40911;51.552;9.874;2023-04-06T07:33:15;11.70;;;7.80;;
13795;SDS011;40911;51.552;9.874;2023-04-06T07:35:37;10.13;;;7.78;;
13795;SDS011;40911;51.552;9.874;2023-04-06T07:37:58;13.70;;;7.60;;
13795;SDS011;40911;51.552;9.874;2023-04-06T07:40:20;10.38;;;7.40;;
13795;SDS011;40911;51.552;9.874;2023-04-06T07:42:42;9.05;;;7.47;;
13795;SDS011;40911;51.552;9.874;2023-04-06T07:45:05;13.57;;;8.05;;
13795;SDS011;40911;51.552;9.874;2023-04-06T07:47:27;11.07;;;7.60;;
13795;SDS011;40911;51.552;9.874;2023-04-06T07:49:49;12.15;;;8.23;;
13795;SDS011;40911;51.552;9.874;2023-04-06T07:52:11;8.65;;;7.65;;
13795;SDS011;40911;51.552;9.874;2023-04-06T07:56:54;12.25;;;7.43;;
13795;SDS011;40911;51.552;9.874;2023-04-06T07:59:15;8.88;;;7.93;;
13795;SDS011;40911;51.552;9.874;2023-04-06T08:01:38;12.80;;;8.30;;
13795;SDS011;40911;51.552;9.874;2023-04-06T08:04:00;8.55;;;7.65;;
13795;SDS011;40911;51.552;9.874;2023-04-06T08:06:22;9.18;;;7.47;;
13795;SDS011;40911;51.552;9.874;2023-04-06T08:08:44;10.15;;;7.32;;
13795;SDS011;40911;51.552;9.874;2023-04-06T08:11:05;11.38;;;7.88;;
13795;SDS011;40911;51.552;9.874;2023-04-06T08:13:27;8.73;;;7.55;;
13795;SDS011;40911;51.552;9.874;2023-04-06T08:15:49;9.02;;;7.55;;
13795;SDS011;40911;51.552;9.874;2023-04-06T08:18:12;9.35;;;7.30;;
13795;SDS011;40911;51.552;9.874;2023-04-06T08:20:34;8.52;;;7.47;;
13795;SDS011;40911;51.552;9.874;2023-04-06T08:22:56;10.23;;;6.65;;
13795;SDS011;40911;51.552;9.874;2023-04-06T08:25:17;11.90;;;7.63;;
13795;SDS011;40911;51.552;9.874;2023-04-06T08:27:39;10.20;;;7.50;;
13795;SDS011;40911;51.552;9.874;2023-04-06T08:30:00;9.23;;;7.82;;
13795;SDS011;40911;51.552;9.874;2023-04-06T08:32:22;9.98;;;7.82;;
13795;SDS011;40911;51.552;9.874;2023-04-06T08:34:45;10.93;;;8.15;;
13795;SDS011;40911;51.552;9.874;2023-04-06T08:37:07;9.60;;;7.10;;
13795;SDS011;40911;51.552;9.874;2023-04-06T08:39:29;11.57;;;7.95;;
13795;SDS011;40911;51.552;9.874;2023-04-06T08:41:51;11.98;;;7.53;;
13795;SDS011;40911;51.552;9.874;2023-04-06T08:46:34;12.82;;;6.90;;
13795;SDS011;40911;51.552;9.874;2023-04-06T08:48:56;11.57;;;7.88;;
13795;SDS011;40911;51.552;9.874;2023-04-06T08:51:19;11.30;;;7.88;;
13795;SDS011;40911;51.552;9.874;2023-04-06T08:53:41;9.20;;;6.90;;
13795;SDS011;40911;51.552;9.874;2023-04-06T08:56:03;10.65;;;7.68;;
13795;SDS011;40911;51.552;9.874;2023-04-06T08:58:26;12.38;;;7.70;;
13795;SDS011;40911;51.552;9.874;2023-04-06T09:00:51;9.32;;;6.85;;
13795;SDS011;40911;51.552;9.874;2023-04-06T09:03:13;8.55;;;7.30;;
13795;SDS011;40911;51.552;9.874;2023-04-06T09:05:35;11.65;;;8.00;;
13795;SDS011;40911;51.552;9.874;2023-04-06T09:10:20;11.50;;;7.80;;
13795;SDS011;40911;51.552;9.874;2023-04-06T09:12:43;9.98;;;7.25;;
13795;SDS011;40911;51.552;9.874;2023-04-06T09:15:05;10.77;;;8.18;;
13795;SDS011;40911;51.552;9.874;2023-04-06T09:17:38;8.80;;;7.78;;
13795;SDS011;40911;51.552;9.874;2023-04-06T09:19:59;10.32;;;7.65;;
13795;SDS011;40911;51.552;9.874;2023-04-06T09:22:22;9.70;;;7.65;;
13795;SDS011;40911;51.552;9.874;2023-04-06T09:24:46;12.35;;;7.78;;
13795;SDS011;40911;51.552;9.874;2023-04-06T09:27:09;10.68;;;7.85;;
13795;SDS011;40911;51.552;9.874;2023-04-06T09:29:31;8.65;;;7.70;;
13795;SDS011;40911;51.552;9.874;2023-04-06T09:32:01;9.55;;;7.45;;
13795;SDS011;40911;51.552;9.874;2023-04-06T09:34:23;9.85;;;7.50;;
13795;SDS011;40911;51.552;9.874;2023-04-06T09:36:45;9.18;;;7.07;;
13795;SDS011;40911;51.552;9.874;2023-04-06T09:39:06;9.68;;;7.78;;
13795;SDS011;40911;51.552;9.874;2023-04-06T09:41:30;9.82;;;7.90;;
13795;SDS011;40911;51.552;9.874;2023-04-06T09:44:01;10.43;;;7.57;;
13795;SDS011;40911;51.552;9.874;2023-04-06T09:46:23;10.23;;;7.00;;
13795;SDS011;40911;51.552;9.874;2023-04-06T09:48:45;8.90;;;6.82;;
13795;SDS011;40911;51.552;9.874;2023-04-06T09:51:07;10.10;;;6.85;;
13795;SDS011;40911;51.552;9.874;2023-04-06T09:53:32;8.93;;;6.45;;
13795;SDS011;40911;51.552;9.874;2023-04-06T09:55:59;11.15;;;7.45;;
13795;SDS011;40911;51.552;9.874;2023-04-06T09:58:25;7.43;;;6.68;;
13795;SDS011;40911;51.552;9.874;2023-04-06T10:00:47;9.93;;;6.53;;
13795;SDS011;40911;51.552;9.874;2023-04-06T10:03:14;7.18;;;6.20;;
13795;SDS011;40911;51.552;9.874;2023-04-06T10:05:42;8.25;;;6.57;;
13795;SDS011;40911;51.552;9.874;2023-04-06T10:08:08;7.70;;;6.32;;
13795;SDS011;40911;51.552;9.874;2023-04-06T10:10:31;6.97;;;6.22;;
13795;SDS011;40911;51.552;9.874;2023-04-06T10:12:53;8.18;;;6.45;;
13795;SDS011;40911;51.552;9.874;2023-04-06T10:15:17;8.27;;;6.10;;
13795;SDS011;40911;51.552;9.874;2023-04-06T10:17:38;7.35;;;5.63;;
13795;SDS011;40911;51.552;9.874;2023-04-06T10:20:02;9.10;;;5.85;;
13795;SDS011;40911;51.552;9.874;2023-04-06T10:22:29;6.75;;;5.90;;
13795;SDS011;40911;51.552;9.874;2023-04-06T10:24:57;7.57;;;6.13;;
13795;SDS011;40911;51.552;9.874;2023-04-06T10:27:27;8.52;;;6.28;;
13795;SDS011;40911;51.552;9.874;2023-04-06T10:29:48;8.27;;;6.60;;
13795;SDS011;40911;51.552;9.874;2023-04-06T10:32:12;7.65;;;5.75;;
13795;SDS011;40911;51.552;9.874;2023-04-06T10:34:34;8.85;;;6.40;;
13795;SDS011;40911;51.552;9.874;2023-04-06T10:36:56;9.50;;;6.65;;
13795;SDS011;40911;51.552;9.874;2023-04-06T10:39:23;9.55;;;7.00;;
13795;SDS011;40911;51.552;9.874;2023-04-06T10:41:46;8.55;;;6.95;;
13795;SDS011;40911;51.552;9.874;2023-04-06T10:44:16;9.02;;;6.93;;
13795;SDS011;40911;51.552;9.874;2023-04-06T10:46:38;9.70;;;7.15;;
13795;SDS011;40911;51.552;9.874;2023-04-06T10:49:10;10.73;;;7.55;;
13795;SDS011;40911;51.552;9.874;2023-04-06T10:51:33;9.93;;;7.05;;
13795;SDS011;40911;51.552;9.874;2023-04-06T10:53:59;9.18;;;7.10;;
13795;SDS011;40911;51.552;9.874;2023-04-06T10:56:24;11.98;;;7.88;;
13795;SDS011;40911;51.552;9.874;2023-04-06T10:58:48;10.20;;;7.60;;
13795;SDS011;40911;51.552;9.874;2023-04-06T11:01:12;8.77;;;7.20;;
13795;SDS011;40911;51.552;9.874;2023-04-06T11:03:42;10.57;;;7.70;;
13795;SDS011;40911;51.552;9.874;2023-04-06T11:06:06;11.23;;;7.60;;
13795;SDS011;40911;51.552;9.874;2023-04-06T11:08:29;8.85;;;7.82;;
13795;SDS011;40911;51.552;9.874;2023-04-06T11:10:51;9.40;;;7.28;;
13795;SDS011;40911;51.552;9.874;2023-04-06T11:13:13;9.55;;;7.32;;
13795;SDS011;40911;51.552;9.874;2023-04-06T11:15:34;8.40;;;7.30;;
13795;SDS011;40911;51.552;9.874;2023-04-06T11:17:56;9.80;;;7.72;;
13795;SDS011;40911;51.552;9.874;2023-04-06T11:22:49;11.70;;;7.97;;
13795;SDS011;40911;51.552;9.874;2023-04-06T11:25:11;10.73;;;7.68;;
13795;SDS011;40911;51.552;9.874;2023-04-06T11:27:33;10.27;;;7.47;;
13795;SDS011;40911;51.552;9.874;2023-04-06T11:29:55;12.23;;;7.97;;
13795;SDS011;40911;51.552;9.874;2023-04-06T11:32:20;11.05;;;8.23;;
13795;SDS011;40911;51.552;9.874;2023-04-06T11:34:43;9.73;;;7.82;;
13795;SDS011;40911;51.552;9.874;2023-04-06T11:37:09;9.77;;;8.02;;
13795;SDS011;40911;51.552;9.874;2023-04-06T11:39:37;12.25;;;7.78;;
13795;SDS011;40911;51.552;9.874;2023-04-06T11:42:00;10.30;;;8.05;;
13795;SDS011;40911;51.552;9.874;2023-04-06T11:44:32;12.05;;;8.38;;
13795;SDS011;40911;51.552;9.874;2023-04-06T11:49:18;8.98;;;7.90;;
13795;SDS011;40911;51.552;9.874;2023-04-06T11:51:39;11.50;;;8.75;;
13795;SDS011;40911;51.552;9.874;2023-04-06T11:54:01;11.52;;;8.10;;
13795;SDS011;40911;51.552;9.874;2023-04-06T11:56:24;10.52;;;7.93;;
13795;SDS011;40911;51.552;9.874;2023-04-06T11:58:46;9.57;;;7.40;;
13795;SDS011;40911;51.552;9.874;2023-04-06T12:01:08;15.30;;;8.00;;
13795;SDS011;40911;51.552;9.874;2023-04-06T12:03:29;10.02;;;7.90;;
13795;SDS011;40911;51.552;9.874;2023-04-06T12:05:51;16.38;;;8.52;;
13795;SDS011;40911;51.552;9.874;2023-04-06T12:08:13;11.98;;;9.18;;
13795;SDS011;40911;51.552;9.874;2023-04-06T12:10:34;11.23;;;8.68;;
13795;SDS011;40911;51.552;9.874;2023-04-06T12:12:57;9.75;;;7.95;;
13795;SDS011;40911;51.552;9.874;2023-04-06T12:15:19;10.77;;;8.43;;
13795;SDS011;40911;51.552;9.874;2023-04-06T12:17:40;14.13;;;9.00;;
13795;SDS011;40911;51.552;9.874;2023-04-06T12:20:02;11.55;;;8.98;;
13795;SDS011;40911;51.552;9.874;2023-04-06T12:22:24;16.58;;;9.15;;
13795;SDS011;40911;51.552;9.874;2023-04-06T12:24:45;10.13;;;8.75;;
13795;SDS011;40911;51.552;9.874;2023-04-06T12:27:07;14.80;;;9.50;;
13795;SDS011;40911;51.552;9.874;2023-04-06T12:29:32;13.10;;;8.32;;
13795;SDS011;40911;51.552;9.874;2023-04-06T12:31:54;12.05;;;8.55;;
13795;SDS011;40911;51.552;9.874;2023-04-06T12:34:16;12.77;;;8.75;;
13795;SDS011;40911;51.552;9.874;2023-04-06T12:38:59;11.20;;;8.43;;
13795;SDS011;40911;51.552;9.874;2023-04-06T12:41:22;10.10;;;7.30;;
13795;SDS011;40911;51.552;9.874;2023-04-06T12:43:48;10.57;;;8.55;;
13795;SDS011;40911;51.552;9.874;2023-04-06T12:46:11;11.57;;;7.68;;
13795;SDS011;40911;51.552;9.874;2023-04-06T12:48:33;13.55;;;7.40;;
13795;SDS011;40911;51.552;9.874;2023-04-06T12:50:56;9.48;;;7.18;;
13795;SDS011;40911;51.552;9.874;2023-04-06T12:53:18;9.18;;;6.75;;
13795;SDS011;40911;51.552;9.874;2023-04-06T12:58:01;11.93;;;8.57;;
13795;SDS011;40911;51.552;9.874;2023-04-06T13:00:23;10.82;;;8.15;;
13795;SDS011;40911;51.552;9.874;2023-04-06T13:02:46;11.60;;;8.98;;
13795;SDS011;40911;51.552;9.874;2023-04-06T13:05:08;10.27;;;7.90;;
13795;SDS011;40911;51.552;9.874;2023-04-06T13:07:30;12.60;;;7.75;;
13795;SDS011;40911;51.552;9.874;2023-04-06T13:09:52;9.68;;;8.55;;
13795;SDS011;40911;51.552;9.874;2023-04-06T13:12:13;10.40;;;8.23;;
13795;SDS011;40911;51.552;9.874;2023-04-06T13:14:35;9.68;;;7.63;;
13795;SDS011;40911;51.552;9.874;2023-04-06T13:16:57;11.27;;;7.25;;
13795;SDS011;40911;51.552;9.874;2023-04-06T13:21:41;10.27;;;7.43;;
13795;SDS011;40911;51.552;9.874;2023-04-06T13:24:03;10.52;;;8.32;;
13795;SDS011;40911;51.552;9.874;2023-04-06T13:26:25;9.77;;;8.20;;
13795;SDS011;40911;51.552;9.874;2023-04-06T13:28:46;9.80;;;7.80;;
13795;SDS011;40911;51.552;9.874;2023-04-06T13:31:08;9.60;;;7.38;;
13795;SDS011;40911;51.552;9.874;2023-04-06T13:33:29;10.02;;;7.78;;
13795;SDS011;40911;51.552;9.874;2023-04-06T13:35:53;10.10;;;7.82;;
13795;SDS011;40911;51.552;9.874;2023-04-06T13:38:15;12.18;;;8.32;;
13795;SDS011;40911;51.552;9.874;2023-04-06T13:40:38;9.63;;;7.80;;
13795;SDS011;40911;51.552;9.874;2023-04-06T13:42:59;12.00;;;7.32;;
13795;SDS011;40911;51.552;9.874;2023-04-06T13:45:21;9.43;;;7.75;;
13795;SDS011;40911;51.552;9.874;2023-04-06T13:47:42;9.88;;;7.57;;
13795;SDS011;40911;51.552;9.874;2023-04-06T13:52:27;7.40;;;6.53;;
13795;SDS011;40911;51.552;9.874;2023-04-06T13:54:49;9.20;;;6.88;;
13795;SDS011;40911;51.552;9.874;2023-04-06T13:57:11;11.48;;;7.38;;
13795;SDS011;40911;51.552;9.874;2023-04-06T14:01:54;10.27;;;7.20;;
13795;SDS011;40911;51.552;9.874;2023-04-06T14:04:16;9.32;;;7.10;;
13795;SDS011;40911;51.552;9.874;2023-04-06T14:06:37;11.05;;;7.53;;
13795;SDS011;40911;51.552;9.874;2023-04-06T14:09:01;8.75;;;7.10;;
13795;SDS011;40911;51.552;9.874;2023-04-06T14:11:22;9.90;;;7.47;;
13795;SDS011;40911;51.552;9.874;2023-04-06T14:13:44;9.10;;;7.13;;
13795;SDS011;40911;51.552;9.874;2023-04-06T14:16:06;11.27;;;7.25;;
13795;SDS011;40911;51.552;9.874;2023-04-06T14:18:28;9.65;;;6.47;;
13795;SDS011;40911;51.552;9.874;2023-04-06T14:20:54;12.52;;;7.65;;
13795;SDS011;40911;51.552;9.874;2023-04-06T14:23:16;8.85;;;6.82;;
13795;SDS011;40911;51.552;9.874;2023-04-06T14:25:39;9.57;;;6.88;;
13795;SDS011;40911;51.552;9.874;2023-04-06T14:28:01;7.82;;;6.70;;
13795;SDS011;40911;51.552;9.874;2023-04-06T14:32:44;10.23;;;7.03;;
13795;SDS011;40911;51.552;9.874;2023-04-06T14:35:05;8.63;;;6.68;;
13795;SDS011;40911;51.552;9.874;2023-04-06T14:37:27;8.68;;;6.93;;
13795;SDS011;40911;51.552;9.874;2023-04-06T14:39:49;11.18;;;7.03;;
13795;SDS011;40911;51.552;9.874;2023-04-06T14:42:12;9.10;;;7.50;;
13795;SDS011;40911;51.552;9.874;2023-04-06T14:44:33;10.38;;;7.35;;
13795;SDS011;40911;51.552;9.874;2023-04-06T14:46:56;8.32;;;6.47;;
13795;SDS011;40911;51.552;9.874;2023-04-06T14:49:18;8.85;;;6.78;;
13795;SDS011;40911;51.552;9.874;2023-04-06T14:51:39;9.75;;;7.00;;
13795;SDS011;40911;51.552;9.874;2023-04-06T14:54:01;9.30;;;6.95;;
13795;SDS011;40911;51.552;9.874;2023-04-06T14:56:23;12.60;;;7.10;;
13795;SDS011;40911;51.552;9.874;2023-04-06T14:58:47;11.02;;;7.13;;
13795;SDS011;40911;51.552;9.874;2023-04-06T15:01:08;6.78;;;4.82;;